sensor_id;sensor_type;location;lat;lon;timestamp;pressure;altitude;pressure_sealevel;temperature;humidity
68656;BME280;55638;51.122;13.606;2023-08-12T00:01:00;100520.63;;;17.51;52.13
68656;BME280;55638;51.122;13.606;2023-08-12T00:02:32;100515.34;;;17.50;52.55
68656;BME280;55638;51.122;13.606;2023-08-12T00:04:04;100517.06;;;17.51;52.21
68656;BME280;55638;51.122;13.606;2023-08-12T00:05:36;100514.34;;;17.51;52.60
68656;BME280;55638;51.122;13.606;2023-08-12T00:07:09;100514.34;;;17.51;52.47
68656;BME280;55638;51.122;13.606;2023-08-12T00:08:42;100516.91;;;17.52;52.33
68656;BME280;55638;51.122;13.606;2023-08-12T00:10:14;100516.91;;;17.52;52.23
68656;BME280;55638;51.122;13.606;2023-08-12T00:11:47;100517.75;;;17.53;52.26
68656;BME280;55638;51.122;13.606;2023-08-12T00:13:19;100523.34;;;17.51;52.11
68656;BME280;55638;51.122;13.606;2023-08-12T00:14:52;100524.22;;;17.52;52.06
68656;BME280;55638;51.122;13.606;2023-08-12T00:16:24;100521.47;;;17.52;52.37
68656;BME280;55638;51.122;13.606;2023-08-12T00:17:56;100516.22;;;17.50;52.25
68656;BME280;55638;51.122;13.606;2023-08-12T00:19:28;100513.47;;;17.50;51.95
68656;BME280;55638;51.122;13.606;2023-08-12T00:21:00;100514.66;;;17.48;52.41
68656;BME280;55638;51.122;13.606;2023-08-12T00:22:32;100511.09;;;17.47;52.19
68656;BME280;55638;51.122;13.606;2023-08-12T00:24:04;100509.53;;;17.45;52.13
68656;BME280;55638;51.122;13.606;2023-08-12T00:25:36;100514.31;;;17.43;52.29
68656;BME280;55638;51.122;13.606;2023-08-12T00:27:08;100507.31;;;17.40;52.30
68656;BME280;55638;51.122;13.606;2023-08-12T00:28:41;100508.50;;;17.37;52.71
68656;BME280;55638;51.122;13.606;2023-08-12T00:30:13;100509.53;;;17.36;52.54
68656;BME280;55638;51.122;13.606;2023-08-12T00:31:45;100508.84;;;17.34;52.37
68656;BME280;55638;51.122;13.606;2023-08-12T00:33:19;100508.31;;;17.31;52.42
68656;BME280;55638;51.122;13.606;2023-08-12T00:34:51;100514.59;;;17.31;52.31
68656;BME280;55638;51.122;13.606;2023-08-12T00:36:23;100507.47;;;17.30;52.63
68656;BME280;55638;51.122;13.606;2023-08-12T00:37:55;100507.78;;;17.27;52.76
68656;BME280;55638;51.122;13.606;2023-08-12T00:39:27;100503.38;;;17.26;52.84
68656;BME280;55638;51.122;13.606;2023-08-12T00:40:59;100502.47;;;17.26;52.62
68656;BME280;55638;51.122;13.606;2023-08-12T00:42:31;100506.41;;;17.23;52.73
68656;BME280;55638;51.122;13.606;2023-08-12T00:44:04;100500.09;;;17.23;52.84
68656;BME280;55638;51.122;13.606;2023-08-12T00:45:36;100501.28;;;17.20;52.70
68656;BME280;55638;51.122;13.606;2023-08-12T00:47:08;100502.28;;;17.19;52.61
68656;BME280;55638;51.122;13.606;2023-08-12T00:48:41;100502.47;;;17.17;52.62
68656;BME280;55638;51.122;13.606;2023-08-12T00:50:14;100500.78;;;17.16;52.97
68656;BME280;55638;51.122;13.606;2023-08-12T00:51:49;100501.75;;;17.15;53.21
68656;BME280;55638;51.122;13.606;2023-08-12T00:53:21;100501.75;;;17.15;53.02
68656;BME280;55638;51.122;13.606;2023-08-12T00:54:53;100498.34;;;17.13;52.92
68656;BME280;55638;51.122;13.606;2023-08-12T00:56:26;100503.78;;;17.13;53.00
68656;BME280;55638;51.122;13.606;2023-08-12T00:57:58;100495.94;;;17.10;53.23
68656;BME280;55638;51.122;13.606;2023-08-12T00:59:32;100501.38;;;17.10;53.18
68656;BME280;55638;51.122;13.606;2023-08-12T01:01:04;100489.78;;;17.08;53.19
68656;BME280;55638;51.122;13.606;2023-08-12T01:02:36;100501.84;;;17.06;53.09
68656;BME280;55638;51.122;13.606;2023-08-12T01:04:08;100502.88;;;17.05;53.05
68656;BME280;55638;51.122;13.606;2023-08-12T01:05:42;100494.00;;;17.03;53.25
68656;BME280;55638;51.122;13.606;2023-08-12T01:07:14;100494.00;;;17.03;53.21
68656;BME280;55638;51.122;13.606;2023-08-12T01:08:46;100496.06;;;17.01;53.15
68656;BME280;55638;51.122;13.606;2023-08-12T01:10:20;100495.22;;;17.00;53.41
68656;BME280;55638;51.122;13.606;2023-08-12T01:12:06;100495.38;;;16.99;53.65
68656;BME280;55638;51.122;13.606;2023-08-12T01:13:58;100489.53;;;16.93;53.91
68656;BME280;55638;51.122;13.606;2023-08-12T01:15:34;100490.09;;;16.97;53.29
68656;BME280;55638;51.122;13.606;2023-08-12T01:17:08;100490.94;;;16.98;53.23
68656;BME280;55638;51.122;13.606;2023-08-12T01:18:42;100487.53;;;16.96;53.62
68656;BME280;55638;51.122;13.606;2023-08-12T01:20:15;100493.81;;;16.96;53.80
68656;BME280;55638;51.122;13.606;2023-08-12T01:21:49;100492.13;;;16.95;53.69
68656;BME280;55638;51.122;13.606;2023-08-12T01:23:24;100488.38;;;16.96;53.39
68656;BME280;55638;51.122;13.606;2023-08-12T01:24:56;100488.38;;;16.96;53.58
68656;BME280;55638;51.122;13.606;2023-08-12T01:26:28;100492.97;;;16.96;53.38
68656;BME280;55638;51.122;13.606;2023-08-12T01:28:00;100497.38;;;16.97;53.56
68656;BME280;55638;51.122;13.606;2023-08-12T01:29:39;100493.28;;;16.92;54.21
68656;BME280;55638;51.122;13.606;2023-08-12T01:31:18;100495.88;;;16.94;53.81
68656;BME280;55638;51.122;13.606;2023-08-12T01:32:57;100494.66;;;16.97;53.89
68656;BME280;55638;51.122;13.606;2023-08-12T01:34:43;100487.19;;;16.99;53.41
68656;BME280;55638;51.122;13.606;2023-08-12T01:36:19;100488.03;;;16.99;53.80
68656;BME280;55638;51.122;13.606;2023-08-12T01:37:54;100489.06;;;16.98;53.83
68656;BME280;55638;51.122;13.606;2023-08-12T01:39:28;100484.31;;;17.00;53.50
68656;BME280;55638;51.122;13.606;2023-08-12T01:41:02;100482.59;;;16.99;53.70
68656;BME280;55638;51.122;13.606;2023-08-12T01:42:38;100485.19;;;17.01;53.50
68656;BME280;55638;51.122;13.606;2023-08-12T01:44:11;100484.84;;;17.04;53.47
68656;BME280;55638;51.122;13.606;2023-08-12T01:45:43;100490.28;;;17.04;53.52
68656;BME280;55638;51.122;13.606;2023-08-12T01:47:15;100481.09;;;17.05;53.61
68656;BME280;55638;51.122;13.606;2023-08-12T01:48:47;100480.91;;;17.06;53.27
68656;BME280;55638;51.122;13.606;2023-08-12T01:50:21;100470.91;;;17.07;53.34
68656;BME280;55638;51.122;13.606;2023-08-12T01:51:53;100476.19;;;17.08;53.51
68656;BME280;55638;51.122;13.606;2023-08-12T01:53:27;100469.88;;;17.08;53.46
68656;BME280;55638;51.122;13.606;2023-08-12T01:54:59;100463.41;;;17.09;53.18
68656;BME280;55638;51.122;13.606;2023-08-12T01:56:31;100467.84;;;17.10;53.65
68656;BME280;55638;51.122;13.606;2023-08-12T01:58:03;100464.25;;;17.09;53.56
68656;BME280;55638;51.122;13.606;2023-08-12T01:59:35;100465.13;;;17.10;53.38
68656;BME280;55638;51.122;13.606;2023-08-12T02:01:07;100462.41;;;17.10;53.14
68656;BME280;55638;51.122;13.606;2023-08-12T02:02:39;100453.22;;;17.11;53.41
68656;BME280;55638;51.122;13.606;2023-08-12T02:04:11;100457.63;;;17.12;53.24
68656;BME280;55638;51.122;13.606;2023-08-12T02:05:43;100451.34;;;17.11;53.12
68656;BME280;55638;51.122;13.606;2023-08-12T02:07:16;100456.97;;;17.10;53.28
68656;BME280;55638;51.122;13.606;2023-08-12T02:08:47;100453.34;;;17.09;53.29
68656;BME280;55638;51.122;13.606;2023-08-12T02:10:19;100456.97;;;17.10;52.96
68656;BME280;55638;51.122;13.606;2023-08-12T02:11:51;100455.25;;;17.09;53.07
68656;BME280;55638;51.122;13.606;2023-08-12T02:13:23;100454.38;;;17.08;52.79
68656;BME280;55638;51.122;13.606;2023-08-12T02:14:55;100446.41;;;17.07;52.95
68656;BME280;55638;51.122;13.606;2023-08-12T02:16:28;100442.78;;;17.06;53.04
68656;BME280;55638;51.122;13.606;2023-08-12T02:18:00;100451.13;;;17.05;52.87
68656;BME280;55638;51.122;13.606;2023-08-12T02:19:33;100449.44;;;17.04;53.08
68656;BME280;55638;51.122;13.606;2023-08-12T02:21:05;100435.13;;;17.02;53.21
68656;BME280;55638;51.122;13.606;2023-08-12T02:22:37;100439.03;;;16.99;53.00
68656;BME280;55638;51.122;13.606;2023-08-12T02:24:09;100442.59;;;17.00;53.21
68656;BME280;55638;51.122;13.606;2023-08-12T02:25:42;100437.31;;;16.98;53.11
68656;BME280;55638;51.122;13.606;2023-08-12T02:27:14;100437.31;;;16.98;53.18
68656;BME280;55638;51.122;13.606;2023-08-12T02:28:46;100444.81;;;16.96;53.05
68656;BME280;55638;51.122;13.606;2023-08-12T02:30:20;100438.50;;;16.96;53.10
68656;BME280;55638;51.122;13.606;2023-08-12T02:31:52;100438.69;;;16.94;52.85
68656;BME280;55638;51.122;13.606;2023-08-12T02:33:24;100436.94;;;16.93;53.06
68656;BME280;55638;51.122;13.606;2023-08-12T02:34:56;100435.25;;;16.92;53.29
68656;BME280;55638;51.122;13.606;2023-08-12T02:36:28;100430.00;;;16.90;53.43
68656;BME280;55638;51.122;13.606;2023-08-12T02:38:01;100426.38;;;16.90;53.09
68656;BME280;55638;51.122;13.606;2023-08-12T02:39:33;100435.59;;;16.89;53.18
68656;BME280;55638;51.122;13.606;2023-08-12T02:41:05;100429.44;;;16.87;52.92
68656;BME280;55638;51.122;13.606;2023-08-12T02:42:38;100424.00;;;16.87;53.15
68656;BME280;55638;51.122;13.606;2023-08-12T02:44:10;100420.59;;;16.85;53.14
68656;BME280;55638;51.122;13.606;2023-08-12T02:45:42;100418.88;;;16.84;53.20
68656;BME280;55638;51.122;13.606;2023-08-12T02:47:14;100427.91;;;16.84;53.08
68656;BME280;55638;51.122;13.606;2023-08-12T02:48:46;100422.81;;;16.81;53.36
68656;BME280;55638;51.122;13.606;2023-08-12T02:50:21;100427.22;;;16.82;53.03
68656;BME280;55638;51.122;13.606;2023-08-12T02:51:53;100417.50;;;16.80;53.31
68656;BME280;55638;51.122;13.606;2023-08-12T02:53:25;100421.25;;;16.79;53.40
68656;BME280;55638;51.122;13.606;2023-08-12T02:54:57;100419.38;;;16.79;53.47
68656;BME280;55638;51.122;13.606;2023-08-12T02:56:29;100416.97;;;16.76;53.65
68656;BME280;55638;51.122;13.606;2023-08-12T02:58:01;100418.84;;;16.76;53.07
68656;BME280;55638;51.122;13.606;2023-08-12T02:59:33;100416.97;;;16.76;53.40
68656;BME280;55638;51.122;13.606;2023-08-12T03:01:05;100418.16;;;16.74;53.39
68656;BME280;55638;51.122;13.606;2023-08-12T03:02:37;100423.44;;;16.75;53.29
68656;BME280;55638;51.122;13.606;2023-08-12T03:04:09;100412.72;;;16.74;53.43
68656;BME280;55638;51.122;13.606;2023-08-12T03:05:46;100420.19;;;16.72;53.42
68656;BME280;55638;51.122;13.606;2023-08-12T03:07:18;100423.59;;;16.74;53.58
68656;BME280;55638;51.122;13.606;2023-08-12T03:08:51;100422.75;;;16.73;53.30
68656;BME280;55638;51.122;13.606;2023-08-12T03:10:23;100422.59;;;16.75;53.55
68656;BME280;55638;51.122;13.606;2023-08-12T03:11:56;100419.00;;;16.74;53.33
68656;BME280;55638;51.122;13.606;2023-08-12T03:13:28;100419.88;;;16.75;53.39
68656;BME280;55638;51.122;13.606;2023-08-12T03:15:02;100413.56;;;16.74;53.18
68656;BME280;55638;51.122;13.606;2023-08-12T03:16:35;100412.72;;;16.74;53.45
68656;BME280;55638;51.122;13.606;2023-08-12T03:18:06;100409.31;;;16.72;53.52
68656;BME280;55638;51.122;13.606;2023-08-12T03:19:39;100407.75;;;16.69;53.68
68656;BME280;55638;51.122;13.606;2023-08-12T03:21:11;100417.81;;;16.68;53.32
68656;BME280;55638;51.122;13.606;2023-08-12T03:22:44;100410.50;;;16.69;53.73
68656;BME280;55638;51.122;13.606;2023-08-12T03:24:16;100405.03;;;16.69;53.62
68656;BME280;55638;51.122;13.606;2023-08-12T03:25:48;100402.13;;;16.70;53.69
68656;BME280;55638;51.122;13.606;2023-08-12T03:27:20;100406.06;;;16.68;53.72
68656;BME280;55638;51.122;13.606;2023-08-12T03:28:52;100405.88;;;16.69;53.45
68656;BME280;55638;51.122;13.606;2023-08-12T03:30:25;100408.47;;;16.71;53.57
68656;BME280;55638;51.122;13.606;2023-08-12T03:31:58;100400.78;;;16.66;53.81
68656;BME280;55638;51.122;13.606;2023-08-12T03:33:30;100408.78;;;16.68;53.47
68656;BME280;55638;51.122;13.606;2023-08-12T03:35:03;100401.28;;;16.70;53.74
68656;BME280;55638;51.122;13.606;2023-08-12T03:36:36;100410.31;;;16.70;53.40
68656;BME280;55638;51.122;13.606;2023-08-12T03:38:08;100405.75;;;16.71;53.72
68656;BME280;55638;51.122;13.606;2023-08-12T03:39:40;100407.25;;;16.74;53.65
68656;BME280;55638;51.122;13.606;2023-08-12T03:41:12;100405.38;;;16.74;53.82
68656;BME280;55638;51.122;13.606;2023-08-12T03:42:44;100407.97;;;16.76;53.55
68656;BME280;55638;51.122;13.606;2023-08-12T03:44:16;100406.78;;;16.78;53.33
68656;BME280;55638;51.122;13.606;2023-08-12T03:45:48;100406.63;;;16.80;53.65
68656;BME280;55638;51.122;13.606;2023-08-12T03:47:23;100403.75;;;16.81;53.33
68656;BME280;55638;51.122;13.606;2023-08-12T03:48:56;100399.16;;;16.82;53.56
68656;BME280;55638;51.122;13.606;2023-08-12T03:50:28;100395.25;;;16.84;53.33
68656;BME280;55638;51.122;13.606;2023-08-12T03:52:00;100384.50;;;16.83;53.34
68656;BME280;55638;51.122;13.606;2023-08-12T03:53:32;100396.09;;;16.85;53.33
68656;BME280;55638;51.122;13.606;2023-08-12T03:55:05;100391.50;;;16.85;53.59
68656;BME280;55638;51.122;13.606;2023-08-12T03:56:38;100390.66;;;16.85;53.45
68656;BME280;55638;51.122;13.606;2023-08-12T03:58:10;100396.75;;;16.87;53.32
68656;BME280;55638;51.122;13.606;2023-08-12T03:59:42;100394.75;;;16.89;53.49
68656;BME280;55638;51.122;13.606;2023-08-12T04:01:15;100400.03;;;16.90;53.49
68656;BME280;55638;51.122;13.606;2023-08-12T04:02:47;100402.59;;;16.92;53.36
68656;BME280;55638;51.122;13.606;2023-08-12T04:04:20;100395.13;;;16.94;53.41
68656;BME280;55638;51.122;13.606;2023-08-12T04:05:52;100405.81;;;16.96;53.37
68656;BME280;55638;51.122;13.606;2023-08-12T04:07:25;100396.63;;;16.97;53.51
68656;BME280;55638;51.122;13.606;2023-08-12T04:08:58;100393.75;;;16.98;53.48
68656;BME280;55638;51.122;13.606;2023-08-12T04:10:30;100394.59;;;16.99;53.38
68656;BME280;55638;51.122;13.606;2023-08-12T04:12:02;100394.47;;;17.00;53.10
68656;BME280;55638;51.122;13.606;2023-08-12T04:13:34;100393.44;;;17.01;53.42
68656;BME280;55638;51.122;13.606;2023-08-12T04:15:07;100385.25;;;17.01;53.26
68656;BME280;55638;51.122;13.606;2023-08-12T04:16:39;100403.16;;;17.04;53.01
68656;BME280;55638;51.122;13.606;2023-08-12T04:18:12;100393.94;;;17.05;52.95
68656;BME280;55638;51.122;13.606;2023-08-12T04:19:43;100391.94;;;17.07;53.17
68656;BME280;55638;51.122;13.606;2023-08-12T04:21:16;100400.75;;;17.09;53.01
68656;BME280;55638;51.122;13.606;2023-08-12T04:22:49;100385.44;;;17.08;53.02
68656;BME280;55638;51.122;13.606;2023-08-12T04:24:21;100393.28;;;17.11;53.04
68656;BME280;55638;51.122;13.606;2023-08-12T04:25:53;100393.28;;;17.11;52.89
68656;BME280;55638;51.122;13.606;2023-08-12T04:27:31;100393.81;;;17.14;52.98
68656;BME280;55638;51.122;13.606;2023-08-12T04:29:04;100389.94;;;17.17;52.89
68656;BME280;55638;51.122;13.606;2023-08-12T04:30:43;100395.19;;;17.19;52.72
68656;BME280;55638;51.122;13.606;2023-08-12T04:32:16;100389.59;;;17.20;53.04
68656;BME280;55638;51.122;13.606;2023-08-12T04:33:48;100387.72;;;17.21;52.96
68656;BME280;55638;51.122;13.606;2023-08-12T04:35:21;100384.16;;;17.20;52.83
68656;BME280;55638;51.122;13.606;2023-08-12T04:36:53;100392.84;;;17.24;52.80
68656;BME280;55638;51.122;13.606;2023-08-12T04:38:27;100385.19;;;17.27;53.06
68656;BME280;55638;51.122;13.606;2023-08-12T04:40:01;100388.94;;;17.26;52.83
68656;BME280;55638;51.122;13.606;2023-08-12T04:41:35;100383.31;;;17.28;53.03
68656;BME280;55638;51.122;13.606;2023-08-12T04:43:09;100377.53;;;17.31;53.03
68656;BME280;55638;51.122;13.606;2023-08-12T04:44:41;100378.38;;;17.31;52.69
68656;BME280;55638;51.122;13.606;2023-08-12T04:50:52;100382.81;;;17.40;52.67
68656;BME280;55638;51.122;13.606;2023-08-12T04:52:25;100389.97;;;17.42;52.80
68656;BME280;55638;51.122;13.606;2023-08-12T04:53:57;100391.34;;;17.46;52.48
68656;BME280;55638;51.122;13.606;2023-08-12T04:55:29;100385.03;;;17.45;52.36
68656;BME280;55638;51.122;13.606;2023-08-12T04:57:04;100387.41;;;17.48;52.54
68656;BME280;55638;51.122;13.606;2023-08-12T04:58:37;100380.97;;;17.49;52.50
68656;BME280;55638;51.122;13.606;2023-08-12T05:00:09;100376.88;;;17.53;52.30
68656;BME280;55638;51.122;13.606;2023-08-12T05:01:42;100380.44;;;17.54;52.53
68656;BME280;55638;51.122;13.606;2023-08-12T05:03:33;100383.34;;;17.60;52.38
68656;BME280;55638;51.122;13.606;2023-08-12T05:05:07;100383.84;;;17.64;52.07
68656;BME280;55638;51.122;13.606;2023-08-12T05:06:39;100375.69;;;17.64;52.16
68656;BME280;55638;51.122;13.606;2023-08-12T05:08:12;100373.97;;;17.71;52.42
68656;BME280;55638;51.122;13.606;2023-08-12T05:09:44;100378.56;;;17.71;52.13
68656;BME280;55638;51.122;13.606;2023-08-12T05:11:18;100378.25;;;17.74;52.10
68656;BME280;55638;51.122;13.606;2023-08-12T05:12:50;100385.03;;;17.78;52.21
68656;BME280;55638;51.122;13.606;2023-08-12T05:14:24;100376.72;;;17.79;52.09
68656;BME280;55638;51.122;13.606;2023-08-12T05:15:56;100378.06;;;17.83;52.30
68656;BME280;55638;51.122;13.606;2023-08-12T05:17:28;100376.88;;;17.86;51.94
68656;BME280;55638;51.122;13.606;2023-08-12T05:19:02;100377.22;;;17.91;51.79
68656;BME280;55638;51.122;13.606;2023-08-12T05:20:40;100370.59;;;17.94;52.11
68656;BME280;55638;51.122;13.606;2023-08-12T05:22:17;100377.56;;;17.96;51.59
68656;BME280;55638;51.122;13.606;2023-08-12T05:23:49;100381.50;;;18.02;51.65
68656;BME280;55638;51.122;13.606;2023-08-12T05:25:21;100373.28;;;18.10;51.93
68656;BME280;55638;51.122;13.606;2023-08-12T05:26:53;100376.03;;;18.18;52.56
68656;BME280;55638;51.122;13.606;2023-08-12T05:28:25;100365.06;;;18.26;52.57
68656;BME280;55638;51.122;13.606;2023-08-12T05:29:57;100372.72;;;18.39;52.55
68656;BME280;55638;51.122;13.606;2023-08-12T05:31:29;100363.97;;;18.60;52.39
68656;BME280;55638;51.122;13.606;2023-08-12T05:33:01;100368.19;;;18.79;52.33
68656;BME280;55638;51.122;13.606;2023-08-12T05:34:34;100368.59;;;18.99;51.83
68656;BME280;55638;51.122;13.606;2023-08-12T05:36:06;100369.84;;;19.19;51.23
68656;BME280;55638;51.122;13.606;2023-08-12T05:37:38;100367.00;;;19.36;50.63
68656;BME280;55638;51.122;13.606;2023-08-12T05:39:10;100372.69;;;19.57;50.33
68656;BME280;55638;51.122;13.606;2023-08-12T05:40:43;100370.47;;;19.76;49.96
68656;BME280;55638;51.122;13.606;2023-08-12T05:42:14;100366.94;;;19.90;50.10
68656;BME280;55638;51.122;13.606;2023-08-12T05:43:48;100377.72;;;20.06;50.29
68656;BME280;55638;51.122;13.606;2023-08-12T05:45:20;100377.22;;;20.26;50.18
68656;BME280;55638;51.122;13.606;2023-08-12T05:46:51;100359.75;;;20.41;49.30
68656;BME280;55638;51.122;13.606;2023-08-12T05:48:23;100368.25;;;20.61;48.98
68656;BME280;55638;51.122;13.606;2023-08-12T05:49:55;100369.38;;;20.82;48.51
68656;BME280;55638;51.122;13.606;2023-08-12T05:51:27;100365.59;;;20.98;48.17
68656;BME280;55638;51.122;13.606;2023-08-12T05:53:01;100366.19;;;21.15;47.87
68656;BME280;55638;51.122;13.606;2023-08-12T05:54:33;100366.16;;;21.29;48.11
68656;BME280;55638;51.122;13.606;2023-08-12T05:56:05;100369.03;;;21.43;47.43
68656;BME280;55638;51.122;13.606;2023-08-12T05:57:37;100370.44;;;21.53;46.54
68656;BME280;55638;51.122;13.606;2023-08-12T05:59:09;100363.00;;;21.69;46.90
68656;BME280;55638;51.122;13.606;2023-08-12T06:00:40;100361.88;;;21.85;46.77
68656;BME280;55638;51.122;13.606;2023-08-12T06:02:17;100360.66;;;21.94;46.24
68656;BME280;55638;51.122;13.606;2023-08-12T06:03:48;100358.25;;;22.12;46.51
68656;BME280;55638;51.122;13.606;2023-08-12T06:05:21;100358.19;;;22.27;46.21
68656;BME280;55638;51.122;13.606;2023-08-12T06:06:53;100364.81;;;22.39;45.67
68656;BME280;55638;51.122;13.606;2023-08-12T06:08:25;100356.84;;;22.51;45.60
68656;BME280;55638;51.122;13.606;2023-08-12T06:09:56;100360.50;;;22.65;45.37
68656;BME280;55638;51.122;13.606;2023-08-12T06:11:28;100355.94;;;22.79;45.35
68656;BME280;55638;51.122;13.606;2023-08-12T06:13:00;100359.84;;;22.98;45.23
68656;BME280;55638;51.122;13.606;2023-08-12T06:14:32;100352.53;;;23.18;45.32
68656;BME280;55638;51.122;13.606;2023-08-12T06:16:04;100356.84;;;23.40;44.88
68656;BME280;55638;51.122;13.606;2023-08-12T06:17:36;100364.88;;;23.62;44.66
68656;BME280;55638;51.122;13.606;2023-08-12T06:19:08;100353.69;;;23.83;44.34
68656;BME280;55638;51.122;13.606;2023-08-12T06:20:41;100355.81;;;24.08;44.21
68656;BME280;55638;51.122;13.606;2023-08-12T06:22:13;100348.81;;;24.25;43.44
68656;BME280;55638;51.122;13.606;2023-08-12T06:23:45;100349.59;;;24.46;42.73
68656;BME280;55638;51.122;13.606;2023-08-12T06:25:18;100355.94;;;24.66;42.73
68656;BME280;55638;51.122;13.606;2023-08-12T06:26:50;100348.69;;;24.78;41.88
68656;BME280;55638;51.122;13.606;2023-08-12T06:28:22;100349.47;;;24.92;41.87
68656;BME280;55638;51.122;13.606;2023-08-12T06:29:54;100346.88;;;25.04;41.61
68656;BME280;55638;51.122;13.606;2023-08-12T06:31:26;100351.50;;;25.10;40.94
68656;BME280;55638;51.122;13.606;2023-08-12T06:32:58;100355.75;;;25.13;40.01
68656;BME280;55638;51.122;13.606;2023-08-12T06:34:30;100352.13;;;25.12;39.98
68656;BME280;55638;51.122;13.606;2023-08-12T06:36:02;100351.66;;;25.15;40.23
68656;BME280;55638;51.122;13.606;2023-08-12T06:37:34;100351.50;;;25.10;40.03
68656;BME280;55638;51.122;13.606;2023-08-12T06:39:06;100352.59;;;25.02;39.56
68656;BME280;55638;51.122;13.606;2023-08-12T06:40:38;100359.44;;;24.93;39.62
68656;BME280;55638;51.122;13.606;2023-08-12T06:42:10;100358.44;;;24.81;39.58
68656;BME280;55638;51.122;13.606;2023-08-12T06:43:43;100355.94;;;24.66;39.79
68656;BME280;55638;51.122;13.606;2023-08-12T06:45:15;100354.25;;;24.52;40.09
68656;BME280;55638;51.122;13.606;2023-08-12T06:46:46;100358.97;;;24.38;40.57
68656;BME280;55638;51.122;13.606;2023-08-12T06:48:18;100354.09;;;24.27;41.04
68656;BME280;55638;51.122;13.606;2023-08-12T06:49:50;100352.63;;;24.24;41.57
68656;BME280;55638;51.122;13.606;2023-08-12T06:51:22;100350.09;;;24.23;41.96
68656;BME280;55638;51.122;13.606;2023-08-12T06:52:54;100346.06;;;24.25;42.12
68656;BME280;55638;51.122;13.606;2023-08-12T06:54:26;100346.88;;;24.32;42.10
68656;BME280;55638;51.122;13.606;2023-08-12T06:55:58;100340.69;;;24.44;42.02
68656;BME280;55638;51.122;13.606;2023-08-12T06:57:30;100351.47;;;24.58;41.93
68656;BME280;55638;51.122;13.606;2023-08-12T06:59:02;100338.97;;;24.69;41.93
68656;BME280;55638;51.122;13.606;2023-08-12T07:00:34;100335.09;;;24.84;41.37
68656;BME280;55638;51.122;13.606;2023-08-12T07:02:06;100344.34;;;24.96;40.94
68656;BME280;55638;51.122;13.606;2023-08-12T07:03:39;100343.28;;;25.03;40.46
68656;BME280;55638;51.122;13.606;2023-08-12T07:05:11;100342.16;;;25.11;40.60
68656;BME280;55638;51.122;13.606;2023-08-12T07:06:43;100338.31;;;25.12;40.22
68656;BME280;55638;51.122;13.606;2023-08-12T07:08:15;100334.53;;;25.13;40.33
68656;BME280;55638;51.122;13.606;2023-08-12T07:09:46;100333.88;;;25.11;39.96
68656;BME280;55638;51.122;13.606;2023-08-12T07:11:18;100338.75;;;25.09;40.48
68656;BME280;55638;51.122;13.606;2023-08-12T07:12:50;100331.56;;;25.08;41.23
68656;BME280;55638;51.122;13.606;2023-08-12T07:14:22;100330.72;;;25.08;41.28
68656;BME280;55638;51.122;13.606;2023-08-12T07:15:54;100335.78;;;25.11;41.35
68656;BME280;55638;51.122;13.606;2023-08-12T07:17:26;100330.25;;;25.17;41.93
68656;BME280;55638;51.122;13.606;2023-08-12T07:18:58;100323.88;;;25.23;41.24
68656;BME280;55638;51.122;13.606;2023-08-12T07:20:30;100334.81;;;25.37;41.64
68656;BME280;55638;51.122;13.606;2023-08-12T07:22:02;100333.44;;;25.53;42.04
68656;BME280;55638;51.122;13.606;2023-08-12T07:23:34;100334.16;;;25.66;41.58
68656;BME280;55638;51.122;13.606;2023-08-12T07:25:06;100331.06;;;25.88;41.96
68656;BME280;55638;51.122;13.606;2023-08-12T07:26:38;100328.72;;;26.10;41.69
68656;BME280;55638;51.122;13.606;2023-08-12T07:28:10;100332.28;;;26.35;41.92
68656;BME280;55638;51.122;13.606;2023-08-12T07:29:42;100333.69;;;26.63;42.28
68656;BME280;55638;51.122;13.606;2023-08-12T07:31:14;100336.38;;;26.88;41.14
68656;BME280;55638;51.122;13.606;2023-08-12T07:32:46;100330.50;;;27.15;40.48
68656;BME280;55638;51.122;13.606;2023-08-12T07:34:18;100339.63;;;27.45;40.14
68656;BME280;55638;51.122;13.606;2023-08-12T07:35:50;100334.50;;;27.72;40.02
68656;BME280;55638;51.122;13.606;2023-08-12T07:37:22;100330.59;;;28.03;40.04
68656;BME280;55638;51.122;13.606;2023-08-12T07:38:54;100329.63;;;28.33;39.95
68656;BME280;55638;51.122;13.606;2023-08-12T07:40:26;100321.16;;;28.63;39.08
68656;BME280;55638;51.122;13.606;2023-08-12T07:41:58;100322.28;;;28.91;39.03
68656;BME280;55638;51.122;13.606;2023-08-12T07:43:29;100329.81;;;29.19;38.70
68656;BME280;55638;51.122;13.606;2023-08-12T07:45:01;100328.34;;;29.45;38.16
68656;BME280;55638;51.122;13.606;2023-08-12T07:46:34;100326.25;;;29.69;37.83
68656;BME280;55638;51.122;13.606;2023-08-12T07:48:06;100327.69;;;29.88;37.22
68656;BME280;55638;51.122;13.606;2023-08-12T07:49:38;100322.97;;;30.06;36.45
68656;BME280;55638;51.122;13.606;2023-08-12T07:51:10;100327.00;;;30.15;35.90
68656;BME280;55638;51.122;13.606;2023-08-12T07:52:42;100325.41;;;30.19;35.29
68656;BME280;55638;51.122;13.606;2023-08-12T07:54:14;100319.28;;;30.17;35.38
68656;BME280;55638;51.122;13.606;2023-08-12T07:55:46;100321.97;;;30.12;34.93
68656;BME280;55638;51.122;13.606;2023-08-12T07:57:18;100327.63;;;30.00;35.30
68656;BME280;55638;51.122;13.606;2023-08-12T07:58:52;100322.63;;;29.85;35.32
68656;BME280;55638;51.122;13.606;2023-08-12T08:00:24;100316.81;;;29.70;35.10
68656;BME280;55638;51.122;13.606;2023-08-12T08:01:56;100315.72;;;29.54;35.46
68656;BME280;55638;51.122;13.606;2023-08-12T08:03:28;100318.47;;;29.37;35.26